createdAt,value
2019-03-12T00:00:42.792Z,7.47
2019-03-12T00:03:12.354Z,6.30
2019-03-12T00:05:42.000Z,7.33
2019-03-12T00:08:11.599Z,6.93
2019-03-12T00:10:41.256Z,9.40
2019-03-12T00:13:10.885Z,7.13
2019-03-12T00:15:40.436Z,5.30
2019-03-12T00:18:10.032Z,12.20
2019-03-12T00:20:39.704Z,5.73
2019-03-12T00:23:09.235Z,9.30
2019-03-12T00:25:38.844Z,7.27
2019-03-12T00:28:08.470Z,5.20
2019-03-12T00:30:38.210Z,7.23
2019-03-12T00:33:07.750Z,4.93
2019-03-12T00:35:37.326Z,12.30
2019-03-12T00:38:06.936Z,7.10
2019-03-12T00:40:36.514Z,8.23
2019-03-12T00:43:06.205Z,7.87
2019-03-12T00:45:35.820Z,7.00
2019-03-12T00:48:05.466Z,8.33
2019-03-12T00:50:35.471Z,5.83
2019-03-12T00:53:05.495Z,5.63
2019-03-12T00:55:35.142Z,10.10
2019-03-12T00:58:04.790Z,7.83
2019-03-12T01:00:34.449Z,6.97
2019-03-12T01:03:06.891Z,5.77
2019-03-12T01:05:36.492Z,5.43
2019-03-12T01:08:06.372Z,10.53
2019-03-12T01:10:35.856Z,8.37
2019-03-12T01:13:17.297Z,10.50
2019-03-12T01:15:46.998Z,8.57
2019-03-12T01:18:16.617Z,8.37
2019-03-12T01:20:46.205Z,6.70
2019-03-12T01:23:15.981Z,7.63
2019-03-12T01:25:48.920Z,5.97
2019-03-12T01:28:30.067Z,8.80
2019-03-12T01:30:56.393Z,12.30
2019-03-12T01:33:25.929Z,6.00
2019-03-12T01:35:56.125Z,11.03
2019-03-12T01:38:26.037Z,6.13
2019-03-12T01:40:55.782Z,7.73
2019-03-12T01:43:25.733Z,9.87
2019-03-12T01:45:55.303Z,7.90
2019-03-12T01:48:25.301Z,10.77
2019-03-12T01:50:54.864Z,7.37
2019-03-12T01:53:24.444Z,10.23
2019-03-12T01:55:54.047Z,11.23
2019-03-12T01:58:23.618Z,8.77
2019-03-12T02:00:53.366Z,9.37
2019-03-12T02:03:22.959Z,11.80
2019-03-12T02:05:52.514Z,7.57
2019-03-12T02:08:22.074Z,9.73
2019-03-12T02:10:54.395Z,8.37
2019-03-12T02:13:23.971Z,9.33
2019-03-12T02:15:53.664Z,10.40
2019-03-12T02:18:23.618Z,9.00
2019-03-12T02:20:53.234Z,9.80
2019-03-12T02:23:22.936Z,9.00
2019-03-12T02:25:52.523Z,10.40
2019-03-12T02:28:22.148Z,7.70
2019-03-12T02:30:51.986Z,10.43
2019-03-12T02:33:21.588Z,10.70
2019-03-12T02:35:51.541Z,9.70
2019-03-12T02:38:21.169Z,9.83
2019-03-12T02:40:50.957Z,8.37
2019-03-12T02:43:20.520Z,9.07
2019-03-12T02:45:50.110Z,10.07
2019-03-12T02:48:19.673Z,7.87
2019-03-12T02:50:49.227Z,12.33
2019-03-12T02:53:18.829Z,11.00
2019-03-12T02:55:48.435Z,9.67
2019-03-12T02:58:18.159Z,11.97
2019-03-12T03:00:47.684Z,9.97
2019-03-12T03:03:17.663Z,11.57
2019-03-12T03:05:56.696Z,8.17
2019-03-12T03:08:29.597Z,8.23
2019-03-12T03:10:59.189Z,6.13
2019-03-12T03:13:28.769Z,9.90
2019-03-12T03:15:58.399Z,9.63
2019-03-12T03:18:27.944Z,7.67
2019-03-12T03:20:57.862Z,13.30
2019-03-12T03:23:27.807Z,11.47
2019-03-12T03:25:57.350Z,8.07
2019-03-12T03:28:26.941Z,6.80
2019-03-12T03:30:56.514Z,8.60
2019-03-12T03:33:26.034Z,5.67
2019-03-12T03:35:55.598Z,7.87
2019-03-12T03:38:25.169Z,10.07
2019-03-12T03:40:54.901Z,7.70
2019-03-12T03:43:24.553Z,8.50
2019-03-12T03:45:54.149Z,10.63
2019-03-12T03:48:23.835Z,9.67
2019-03-12T03:50:53.398Z,8.20
2019-03-12T03:53:23.570Z,7.53
2019-03-12T03:55:53.179Z,8.47
2019-03-12T03:58:22.902Z,13.67
2019-03-12T04:00:52.620Z,11.10
2019-03-12T04:03:22.281Z,6.83
2019-03-12T04:05:52.805Z,7.57
2019-03-12T04:08:22.416Z,7.70
2019-03-12T04:10:51.966Z,5.77
2019-03-12T04:13:21.569Z,6.20
2019-03-12T04:15:51.570Z,8.00
2019-03-12T04:18:21.423Z,11.23
2019-03-12T04:20:50.933Z,5.90
2019-03-12T04:23:20.658Z,7.97
2019-03-12T04:25:50.262Z,6.07
2019-03-12T04:28:19.797Z,11.10
2019-03-12T04:30:49.349Z,13.27
2019-03-12T04:33:54.216Z,7.90
2019-03-12T04:36:23.767Z,6.80
2019-03-12T04:38:53.349Z,7.50
2019-03-12T04:41:23.040Z,11.63
2019-03-12T04:43:52.579Z,9.57
2019-03-12T04:46:22.087Z,6.37
2019-03-12T04:48:51.596Z,5.97
2019-03-12T04:51:21.207Z,6.00
2019-03-12T04:53:50.739Z,7.93
2019-03-12T04:56:20.254Z,12.90
2019-03-12T04:58:49.851Z,9.57
2019-03-12T05:01:19.428Z,9.20
2019-03-12T05:03:48.940Z,6.77
2019-03-12T05:06:19.729Z,11.15
2019-03-12T05:08:49.565Z,6.27
2019-03-12T05:11:19.144Z,7.83
2019-03-12T05:14:25.392Z,8.33
2019-03-12T05:16:57.427Z,10.63
2019-03-12T05:19:27.866Z,10.17
2019-03-12T05:21:57.323Z,9.00
2019-03-12T05:24:26.905Z,8.17
2019-03-12T05:26:56.481Z,9.80
2019-03-12T05:29:26.047Z,4.87
2019-03-12T05:31:55.636Z,6.83
2019-03-12T05:34:25.083Z,12.07
2019-03-12T05:36:54.600Z,7.70
2019-03-12T05:39:24.107Z,8.97
2019-03-12T05:41:53.556Z,11.53
2019-03-12T05:44:23.099Z,7.40
2019-03-12T05:46:52.635Z,14.83
2019-03-12T05:49:22.129Z,7.77
2019-03-12T05:51:52.086Z,8.10
2019-03-12T05:54:21.620Z,9.33
2019-03-12T05:56:51.157Z,6.90
2019-03-12T05:59:20.701Z,11.67
2019-03-12T06:01:50.252Z,11.13
2019-03-12T06:04:19.929Z,9.57
2019-03-12T06:06:49.551Z,11.40
2019-03-12T06:09:29.634Z,11.73
2019-03-12T06:11:50.378Z,15.13
2019-03-12T06:14:20.012Z,8.53
2019-03-12T06:16:50.134Z,10.17
2019-03-12T06:19:19.743Z,9.83
2019-03-12T06:21:49.268Z,9.57
2019-03-12T06:24:18.814Z,10.00
2019-03-12T06:26:48.425Z,8.03
2019-03-12T06:29:17.938Z,8.90
2019-03-12T06:32:09.439Z,11.73
2019-03-12T06:34:48.582Z,12.65
2019-03-12T06:37:25.752Z,12.70
2019-03-12T06:40:26.303Z,15.07
2019-03-12T06:43:27.186Z,13.50
2019-03-12T06:46:17.984Z,11.83
2019-03-12T06:48:58.000Z,7.57
2019-03-12T06:51:49.483Z,10.47
2019-03-12T06:54:28.448Z,9.20
2019-03-12T06:57:19.805Z,12.57
2019-03-12T07:00:00.450Z,8.87
2019-03-12T07:02:51.675Z,11.73
2019-03-12T07:05:38.505Z,13.13
2019-03-12T07:08:38.852Z,15.77
2019-03-12T07:11:25.659Z,10.13
2019-03-12T07:14:32.278Z,13.97
2019-03-12T07:17:26.789Z,13.43
2019-03-12T07:20:15.226Z,9.83
2019-03-12T07:22:54.052Z,12.43
2019-03-12T07:25:32.922Z,10.70
2019-03-12T07:28:19.721Z,12.23
2019-03-12T07:31:11.182Z,11.23
2019-03-12T07:33:49.443Z,14.97
2019-03-12T07:36:37.060Z,11.57
2019-03-12T07:39:23.521Z,13.20
2019-03-12T07:42:24.523Z,18.57
2019-03-12T07:45:11.441Z,14.47
2019-03-12T07:47:58.299Z,12.60
2019-03-12T07:50:35.696Z,18.27
2019-03-12T07:53:33.232Z,16.47
2019-03-12T07:56:28.137Z,18.57
2019-03-12T07:59:09.139Z,11.27
2019-03-12T08:02:15.533Z,15.47
2019-03-12T08:05:08.405Z,11.13
2019-03-12T08:08:11.843Z,9.77
2019-03-12T08:11:06.153Z,17.30
2019-03-12T08:13:47.794Z,14.03
2019-03-12T08:16:38.972Z,19.53
2019-03-12T08:19:19.664Z,14.33
2019-03-12T08:22:05.973Z,14.50
2019-03-12T08:25:00.455Z,16.40
2019-03-12T08:27:48.895Z,15.57
2019-03-12T08:30:40.048Z,19.30
2019-03-12T08:33:20.511Z,8.97
2019-03-12T08:36:03.884Z,19.00
2019-03-12T08:38:50.719Z,9.70
2019-03-12T08:41:51.090Z,12.40
2019-03-12T08:44:46.455Z,16.53
2019-03-12T08:47:39.943Z,8.83
2019-03-12T08:50:31.083Z,11.00
2019-03-12T08:53:10.270Z,9.50
2019-03-12T08:56:00.459Z,10.20
2019-03-12T08:58:48.850Z,7.97
2019-03-12T09:01:37.584Z,13.13
2019-03-12T09:04:16.028Z,11.63
2019-03-12T09:06:51.065Z,11.17
2019-03-12T09:09:37.662Z,16.80
2019-03-12T09:12:24.727Z,12.13
2019-03-12T09:15:15.299Z,11.77
2019-03-12T09:18:02.092Z,9.00
2019-03-12T09:20:53.333Z,11.93
2019-03-12T09:23:41.820Z,11.67
2019-03-12T09:26:28.992Z,9.33
2019-03-12T09:29:26.315Z,10.37
2019-03-12T09:32:29.886Z,12.03
2019-03-12T09:35:16.668Z,9.57
2019-03-12T09:38:03.718Z,10.77
2019-03-12T09:40:55.227Z,10.17
2019-03-12T09:43:38.196Z,10.67
2019-03-12T09:46:35.552Z,7.07
2019-03-12T09:49:16.372Z,8.83
2019-03-12T09:51:52.201Z,11.00
2019-03-12T09:54:34.058Z,15.57
2019-03-12T09:57:25.569Z,9.87
2019-03-12T10:00:16.452Z,10.53
2019-03-12T10:02:57.188Z,8.63
2019-03-12T10:05:54.642Z,9.87
2019-03-12T10:08:54.895Z,9.77
2019-03-12T10:11:32.294Z,12.80
2019-03-12T10:14:11.175Z,13.03
2019-03-12T10:17:05.748Z,12.00
2019-03-12T10:20:00.257Z,10.30
2019-03-12T10:22:51.805Z,16.73
2019-03-12T10:25:43.015Z,8.30
2019-03-12T10:28:31.428Z,10.43
2019-03-12T10:31:13.144Z,12.13
2019-03-12T10:34:05.042Z,12.97
2019-03-12T10:37:12.309Z,12.30
2019-03-12T10:40:12.482Z,14.87
2019-03-12T10:43:22.058Z,11.43
2019-03-12T10:46:13.755Z,15.07
2019-03-12T10:49:08.174Z,10.13
2019-03-12T10:51:44.172Z,11.43
2019-03-12T10:54:36.666Z,9.33
2019-03-12T10:57:11.450Z,9.10
2019-03-12T10:59:43.100Z,12.97
2019-03-12T11:05:45.886Z,10.97
2019-03-12T11:08:08.298Z,10.50
2019-03-12T11:10:37.772Z,9.03
2019-03-12T11:13:09.971Z,10.83
2019-03-12T11:16:43.787Z,8.67
2019-03-12T11:20:20.830Z,10.90
2019-03-12T11:26:16.935Z,8.10
2019-03-12T11:29:11.518Z,12.53
2019-03-12T11:31:48.447Z,11.80
2019-03-12T11:34:34.078Z,10.63
2019-03-12T11:37:12.684Z,7.93
2019-03-12T11:39:47.490Z,8.23
2019-03-12T11:42:23.344Z,9.60
2019-03-12T11:44:59.773Z,12.73
2019-03-12T11:47:36.641Z,10.90
2019-03-12T11:50:08.016Z,7.30
2019-03-12T11:52:54.752Z,9.73
2019-03-12T11:55:23.041Z,7.87
2019-03-12T11:58:02.508Z,12.17
2019-03-12T12:01:04.445Z,8.23
2019-03-12T12:03:34.456Z,11.73
2019-03-12T12:06:04.949Z,7.07
2019-03-12T12:08:34.881Z,8.13
2019-03-12T12:11:07.108Z,12.97
2019-03-12T12:13:37.092Z,12.35
2019-03-12T12:16:07.281Z,7.07
2019-03-12T12:18:38.976Z,5.47
2019-03-12T12:21:09.094Z,7.53
2019-03-12T12:23:44.322Z,8.03
2019-03-12T12:26:15.403Z,10.97
2019-03-12T12:28:45.697Z,8.10
2019-03-12T12:31:15.935Z,6.47
2019-03-12T12:33:45.943Z,14.53
2019-03-12T12:36:27.592Z,8.07
2019-03-12T12:38:58.386Z,5.80
2019-03-12T12:41:28.235Z,7.10
2019-03-12T12:43:58.025Z,8.43
2019-03-12T12:46:28.748Z,5.07
2019-03-12T12:48:59.978Z,7.87
2019-03-12T12:51:29.563Z,9.30
2019-03-12T12:53:59.127Z,12.93
2019-03-12T12:56:28.663Z,7.13
2019-03-12T12:58:58.086Z,8.67
2019-03-12T13:01:27.526Z,11.17
2019-03-12T13:03:56.880Z,5.50
2019-03-12T13:06:26.223Z,5.93
2019-03-12T13:08:56.099Z,7.77
2019-03-12T13:11:25.476Z,6.23
2019-03-12T13:13:54.834Z,8.83
2019-03-12T13:16:25.643Z,6.70
2019-03-12T13:18:55.246Z,10.73
2019-03-12T13:21:27.149Z,5.33
2019-03-12T13:23:56.539Z,7.83
2019-03-12T13:26:32.265Z,8.58
2019-03-12T13:29:02.215Z,9.73
2019-03-12T13:32:12.353Z,4.73
2019-03-12T13:35:11.318Z,6.17
2019-03-12T13:37:47.703Z,11.03
2019-03-12T13:41:02.722Z,8.23
2019-03-12T13:43:45.155Z,7.67
2019-03-12T13:46:15.592Z,7.67
2019-03-12T13:48:54.792Z,4.90
2019-03-12T13:51:33.894Z,6.10
2019-03-12T13:55:05.189Z,7.27
2019-03-12T13:58:03.016Z,6.57
2019-03-12T14:01:38.585Z,6.50
2019-03-12T14:10:41.556Z,6.10
2019-03-12T14:13:26.418Z,7.10
2019-03-12T14:16:41.781Z,8.93
2019-03-12T14:19:47.063Z,6.17
2019-03-12T14:22:34.680Z,9.60
2019-03-12T14:25:09.329Z,6.30
2019-03-12T14:27:39.533Z,8.73
2019-03-12T14:30:13.271Z,4.50
2019-03-12T14:32:43.620Z,6.93
2019-03-12T14:35:21.540Z,10.00
2019-03-12T14:38:01.272Z,9.73
2019-03-12T14:40:35.563Z,8.13
2019-03-12T14:43:05.724Z,10.90
2019-03-12T14:45:36.208Z,6.87
2019-03-12T14:48:11.910Z,9.60
2019-03-12T14:50:45.760Z,10.30
2019-03-12T14:53:21.799Z,8.17
2019-03-12T14:55:49.178Z,10.13
2019-03-12T14:58:19.149Z,10.07
2019-03-12T15:00:50.538Z,11.37
2019-03-12T15:03:20.389Z,7.07
2019-03-12T15:05:50.518Z,11.77
2019-03-12T15:08:20.241Z,6.87
2019-03-12T15:10:50.271Z,15.60
2019-03-12T15:13:20.453Z,7.20
2019-03-12T15:15:50.316Z,7.23
2019-03-12T15:18:20.312Z,5.77
2019-03-12T15:20:50.258Z,7.10
2019-03-12T15:23:20.364Z,8.63
2019-03-12T15:25:57.843Z,8.80
2019-03-12T15:28:30.746Z,4.90
2019-03-12T15:31:02.282Z,7.90
2019-03-12T15:33:33.111Z,10.63
2019-03-12T15:36:06.027Z,8.70
2019-03-12T15:38:37.396Z,8.30
2019-03-12T15:41:07.317Z,6.63
2019-03-12T15:43:47.133Z,5.30
2019-03-12T15:46:17.557Z,10.47
2019-03-12T15:48:47.057Z,6.03
2019-03-12T15:51:19.545Z,11.57
2019-03-12T15:53:49.477Z,6.20
2019-03-12T15:56:19.184Z,7.27
2019-03-12T15:58:49.111Z,7.00
2019-03-12T16:01:22.515Z,6.73
2019-03-12T16:04:28.906Z,4.50
2019-03-12T16:07:27.821Z,5.07
2019-03-12T16:09:57.526Z,9.73
2019-03-12T16:12:27.098Z,8.20
2019-03-12T16:14:56.752Z,4.27
2019-03-12T16:17:26.245Z,8.30
2019-03-12T16:19:56.941Z,6.37
2019-03-12T16:22:27.561Z,7.43
2019-03-12T16:24:57.058Z,11.43
2019-03-12T16:27:28.113Z,6.23
2019-03-12T16:29:58.098Z,5.13
2019-03-12T16:32:27.865Z,7.70
2019-03-12T16:34:58.049Z,6.53
2019-03-12T16:37:28.488Z,10.30
2019-03-12T16:39:57.847Z,7.63
2019-03-12T16:42:34.950Z,3.83
2019-03-12T16:44:58.777Z,5.83
2019-03-12T16:47:28.355Z,7.00
2019-03-12T16:49:58.160Z,8.40
2019-03-12T16:52:28.479Z,4.63
2019-03-12T16:54:58.332Z,6.13
2019-03-12T16:57:31.022Z,7.07
2019-03-12T17:00:12.835Z,3.57
2019-03-12T17:02:48.991Z,6.57
2019-03-12T17:05:27.780Z,5.50
2019-03-12T17:08:23.525Z,4.27
2019-03-12T17:11:02.813Z,6.67
2019-03-12T17:13:32.434Z,9.40
2019-03-12T17:16:02.847Z,8.70
2019-03-12T17:18:32.782Z,4.97
2019-03-12T17:21:02.251Z,8.77
2019-03-12T17:23:34.178Z,7.20
2019-03-12T17:26:03.699Z,6.65
2019-03-12T17:28:33.103Z,5.40
2019-03-12T17:31:02.449Z,5.53
2019-03-12T17:33:31.930Z,7.17
2019-03-12T17:36:01.314Z,7.20
2019-03-12T17:38:45.682Z,5.00
2019-03-12T17:41:02.256Z,6.93
2019-03-12T17:43:31.660Z,5.57
2019-03-12T17:46:01.062Z,5.40
2019-03-12T17:48:30.562Z,5.27
2019-03-12T17:51:00.398Z,4.50
2019-03-12T17:53:29.838Z,3.13
2019-03-12T17:55:59.268Z,5.83
2019-03-12T17:58:28.674Z,5.73
2019-03-12T18:00:58.206Z,10.27
2019-03-12T18:03:27.565Z,4.47
2019-03-12T18:05:56.975Z,8.07
2019-03-12T18:08:26.390Z,6.20
2019-03-12T18:10:56.160Z,7.50
2019-03-12T18:13:27.837Z,5.90
2019-03-12T18:15:57.360Z,7.57
2019-03-12T18:18:26.983Z,4.30
2019-03-12T18:20:56.827Z,3.00
2019-03-12T18:23:26.813Z,4.33
2019-03-12T18:25:56.629Z,3.40
2019-03-12T18:28:26.390Z,5.50
2019-03-12T18:30:55.898Z,4.63
2019-03-12T18:33:25.632Z,3.97
2019-03-12T18:35:55.176Z,5.53
2019-03-12T18:38:24.671Z,4.27
2019-03-12T18:40:54.184Z,6.03
2019-03-12T18:43:23.747Z,7.13
2019-03-12T18:45:53.245Z,3.70
2019-03-12T18:48:22.550Z,4.60
2019-03-12T18:50:52.247Z,5.30
2019-03-12T18:53:21.646Z,5.07
2019-03-12T18:56:07.741Z,6.50
2019-03-12T18:58:37.225Z,3.53
2019-03-12T19:01:12.381Z,3.53
2019-03-12T19:03:41.759Z,3.10
2019-03-12T19:06:11.196Z,5.30
2019-03-12T19:08:47.480Z,3.53
2019-03-12T19:11:12.907Z,3.83
2019-03-12T19:13:43.384Z,6.23
2019-03-12T19:16:12.829Z,8.53
2019-03-12T19:18:42.281Z,4.30
2019-03-12T19:21:12.109Z,3.70
2019-03-12T19:23:46.490Z,6.03
2019-03-12T19:26:16.448Z,2.37
2019-03-12T19:28:46.255Z,4.70
2019-03-12T19:31:32.006Z,7.60
2019-03-12T19:34:05.721Z,4.63
2019-03-12T19:36:35.199Z,3.40
2019-03-12T19:39:06.243Z,4.53
2019-03-12T19:41:36.628Z,6.03
2019-03-12T19:44:06.238Z,7.93
2019-03-12T19:46:38.728Z,5.03
2019-03-12T19:49:08.221Z,7.37
2019-03-12T19:51:37.606Z,4.30
2019-03-12T19:54:07.309Z,5.57
2019-03-12T19:56:37.067Z,5.87
2019-03-12T19:59:06.757Z,5.73
2019-03-12T20:01:37.615Z,3.23
2019-03-12T20:04:07.244Z,5.83
2019-03-12T20:06:37.065Z,5.33
2019-03-12T20:09:08.960Z,4.87
2019-03-12T20:12:15.916Z,4.50
2019-03-12T20:15:20.223Z,7.13
2019-03-12T20:18:26.647Z,4.27
2019-03-12T20:21:22.473Z,3.30
2019-03-12T20:24:42.220Z,7.80
2019-03-12T20:27:49.848Z,8.83
2019-03-12T20:31:09.028Z,4.07
2019-03-12T20:34:12.754Z,3.20
2019-03-12T20:37:17.455Z,8.57
2019-03-12T20:40:26.618Z,6.77
2019-03-12T20:43:41.773Z,4.60
2019-03-12T20:46:56.027Z,5.73
2019-03-12T20:50:07.551Z,8.13
2019-03-12T20:53:28.463Z,5.70
2019-03-12T20:56:45.191Z,5.27
2019-03-12T21:00:01.696Z,9.33
2019-03-12T21:03:39.346Z,5.37
2019-03-12T21:07:08.066Z,8.23
2019-03-12T21:10:33.459Z,5.87
2019-03-12T21:13:54.267Z,4.10
2019-03-12T21:16:54.282Z,6.27
2019-03-12T21:20:19.722Z,4.70
2019-03-12T21:23:20.516Z,3.63
2019-03-12T21:26:32.422Z,3.83
2019-03-12T21:29:31.328Z,6.97
2019-03-12T21:32:01.176Z,3.43
2019-03-12T21:34:31.163Z,6.13
2019-03-12T21:37:00.730Z,8.40
2019-03-12T21:39:30.431Z,4.70
2019-03-12T21:41:59.918Z,4.40
2019-03-12T21:44:29.559Z,6.60
2019-03-12T21:46:59.309Z,3.53
2019-03-12T21:49:28.855Z,7.90
2019-03-12T21:51:58.402Z,7.30
2019-03-12T21:54:28.247Z,5.00
2019-03-12T21:56:57.791Z,10.33
2019-03-12T21:59:27.339Z,4.30
2019-03-12T22:01:56.832Z,5.03
2019-03-12T22:04:26.393Z,5.70
2019-03-12T22:06:55.876Z,5.07
2019-03-12T22:09:25.419Z,6.60
2019-03-12T22:11:54.996Z,6.40
2019-03-12T22:14:24.805Z,11.80
2019-03-12T22:16:57.355Z,8.83
2019-03-12T22:19:26.848Z,9.33
2019-03-12T22:22:15.277Z,6.73
2019-03-12T22:24:44.809Z,6.67
2019-03-12T22:27:14.343Z,5.57
2019-03-12T22:29:43.865Z,9.93
2019-03-12T22:32:13.373Z,6.80
2019-03-12T22:34:42.821Z,6.73
2019-03-12T22:37:12.348Z,8.30
2019-03-12T22:39:41.885Z,9.47
2019-03-12T22:42:11.699Z,6.10
2019-03-12T22:44:41.246Z,5.33
2019-03-12T22:47:10.862Z,3.73
2019-03-12T22:49:40.548Z,3.77
2019-03-12T22:52:10.073Z,3.17
2019-03-12T22:54:40.048Z,3.27
2019-03-12T22:57:09.957Z,4.00
2019-03-12T22:59:39.434Z,2.20
2019-03-12T23:02:09.352Z,2.77
2019-03-12T23:04:38.880Z,5.73
2019-03-12T23:07:08.383Z,1.40
2019-03-12T23:09:37.823Z,2.53
2019-03-12T23:12:07.389Z,3.93
2019-03-12T23:14:36.945Z,2.00
2019-03-12T23:17:06.392Z,1.37
2019-03-12T23:19:35.977Z,0.93
2019-03-12T23:22:05.448Z,1.33
2019-03-12T23:24:35.423Z,2.27
2019-03-12T23:27:04.908Z,0.67
2019-03-12T23:29:34.351Z,4.07
2019-03-12T23:32:03.892Z,1.70
2019-03-12T23:34:33.435Z,0.90
2019-03-12T23:37:02.901Z,1.30
2019-03-12T23:39:32.426Z,1.43
2019-03-12T23:42:01.928Z,1.10
2019-03-12T23:44:31.472Z,0.80
2019-03-12T23:47:01.008Z,0.87
2019-03-12T23:49:30.660Z,0.50
2019-03-12T23:52:00.212Z,0.57
2019-03-12T23:54:30.140Z,0.47
2019-03-12T23:56:59.672Z,0.67
2019-03-12T23:59:29.395Z,0.50
